Time;durP1;ratioP1;P1;durP2;ratioP2;P2;SDS_P1;SDS_P2;PMS_P1;PMS_P2;Temp;Humidity;BMP_temperature;BMP_pressure;BME280_temperature;BME280_humidity;BME280_pressure;Samples;Min_cycle;Max_cycle;Signal;HPM_P1;HPM_P2
2021/10/11 00:02:26;;;;;;;13.37;8.00;;;7.90;99.90;;;;;;5105377;22;20478;-55
2021/10/11 00:04:52;;;;;;;12.63;7.80;;;7.80;99.90;;;;;;5098161;28;20463;-48
2021/10/11 00:07:19;;;;;;;15.27;7.63;;;7.80;99.90;;;;;;5097717;28;20498;-45
2021/10/11 00:09:48;;;;;;;15.17;7.67;;;7.80;99.90;;;;;;5098037;28;20455;-52
2021/10/11 00:12:19;;;;;;;12.80;7.70;;;7.80;99.90;;;;;;5098102;28;20456;-49
2021/10/11 00:14:45;;;;;;;17.73;7.80;;;7.80;99.90;;;;;;5098682;28;20439;-44
2021/10/11 00:17:12;;;;;;;16.10;8.97;;;7.70;99.90;;;;;;5097933;28;20471;-49
2021/10/11 00:19:38;;;;;;;11.13;7.23;;;7.80;99.90;;;;;;5098001;28;20435;-47
2021/10/11 00:22:05;;;;;;;19.97;7.93;;;7.70;99.90;;;;;;5098116;28;20422;-53
2021/10/11 00:24:32;;;;;;;12.90;8.17;;;7.80;99.90;;;;;;5097144;28;20466;-53
2021/10/11 00:27:02;;;;;;;17.07;8.70;;;7.80;99.90;;;;;;5097419;28;20451;-48
2021/10/11 00:29:30;;;;;;;17.10;7.73;;;7.70;99.90;;;;;;5097521;28;20438;-53
2021/10/11 00:32:03;;;;;;;15.07;7.30;;;7.70;99.90;;;;;;5097590;28;20457;-53
2021/10/11 00:34:29;;;;;;;11.60;7.93;;;7.70;99.90;;;;;;5098106;28;20480;-51
2021/10/11 00:36:56;;;;;;;13.60;7.20;;;7.60;99.90;;;;;;5097716;28;20471;-51
2021/10/11 00:39:23;;;;;;;11.00;7.83;;;7.60;99.90;;;;;;5097537;28;20443;-44
2021/10/11 00:41:50;;;;;;;13.47;8.30;;;7.60;99.90;;;;;;5097596;28;20442;-49
2021/10/11 00:44:18;;;;;;;11.50;8.90;;;7.60;99.90;;;;;;5097514;28;20459;-48
2021/10/11 00:46:46;;;;;;;13.27;6.93;;;7.60;99.90;;;;;;5097204;28;20434;-50
2021/10/11 00:49:13;;;;;;;16.23;7.77;;;7.60;99.90;;;;;;5096941;28;20466;-46
2021/10/11 00:51:42;;;;;;;16.60;8.20;;;7.60;99.90;;;;;;5097145;28;20454;-55
2021/10/11 00:54:09;;;;;;;11.50;8.40;;;7.60;99.90;;;;;;5097425;28;20490;-49
2021/10/11 00:56:36;;;;;;;15.73;8.20;;;7.60;99.90;;;;;;5097211;28;20500;-45
2021/10/11 00:59:03;;;;;;;11.37;7.90;;;7.50;99.90;;;;;;5097424;28;20447;-44
2021/10/11 01:01:30;;;;;;;15.03;8.10;;;7.50;99.90;;;;;;5097506;28;20484;-52
2021/10/11 01:03:58;;;;;;;14.63;7.67;;;7.50;99.90;;;;;;5097251;28;20470;-47
2021/10/11 01:06:25;;;;;;;13.63;7.30;;;7.40;99.90;;;;;;5097013;28;20423;-49
2021/10/11 01:08:52;;;;;;;14.37;7.57;;;7.40;99.90;;;;;;5097510;28;20454;-57
2021/10/11 01:11:18;;;;;;;20.70;8.20;;;7.40;99.90;;;;;;5097283;28;20434;-51
2021/10/11 01:13:45;;;;;;;13.10;7.33;;;7.40;99.90;;;;;;5097271;28;20442;-45
2021/10/11 01:16:12;;;;;;;12.30;7.00;;;7.40;99.90;;;;;;5097292;28;20450;-47
2021/10/11 01:18:38;;;;;;;11.80;7.63;;;7.40;99.90;;;;;;5097030;28;20434;-49
2021/10/11 01:21:06;;;;;;;15.27;9.17;;;7.40;99.90;;;;;;5096181;28;20427;-49
2021/10/11 01:23:34;;;;;;;15.30;7.67;;;7.40;99.90;;;;;;5097104;28;20446;-48
2021/10/11 01:26:01;;;;;;;11.80;6.60;;;7.40;99.90;;;;;;5097022;28;20451;-49
2021/10/11 01:28:29;;;;;;;15.27;8.50;;;7.40;99.90;;;;;;5097173;28;20431;-48
2021/10/11 01:30:57;;;;;;;11.70;7.47;;;7.40;99.90;;;;;;5096641;28;20442;-44
2021/10/11 01:33:24;;;;;;;13.37;8.43;;;7.40;99.90;;;;;;5097015;28;20434;-48
2021/10/11 01:35:51;;;;;;;22.00;8.77;;;7.40;99.90;;;;;;5097104;28;20434;-45
2021/10/11 01:38:19;;;;;;;13.77;7.17;;;7.40;99.90;;;;;;5096976;28;20474;-47
2021/10/11 01:40:46;;;;;;;13.57;8.37;;;7.40;99.90;;;;;;5097068;28;20427;-44
2021/10/11 01:43:12;;;;;;;10.63;7.20;;;7.30;99.90;;;;;;5097182;28;20458;-55
2021/10/11 01:45:41;;;;;;;13.10;8.27;;;7.30;99.90;;;;;;5096700;28;20438;-52
2021/10/11 01:48:08;;;;;;;12.70;7.07;;;7.30;99.90;;;;;;5097235;28;20496;-55
2021/10/11 01:50:37;;;;;;;14.77;7.60;;;7.30;99.90;;;;;;5096560;28;20508;-46
2021/10/11 01:53:04;;;;;;;12.67;7.50;;;7.40;99.90;;;;;;5096722;28;20438;-44
2021/10/11 01:55:32;;;;;;;10.30;7.30;;;7.30;99.90;;;;;;5096606;28;20464;-54
2021/10/11 01:57:58;;;;;;;11.03;7.33;;;7.30;99.90;;;;;;5096606;28;20480;-50
2021/10/11 02:00:25;;;;;;;11.80;6.47;;;7.30;99.90;;;;;;5096639;28;20472;-51
2021/10/11 02:02:52;;;;;;;14.23;7.70;;;7.30;99.90;;;;;;5096549;28;20450;-47
2021/10/11 02:05:18;;;;;;;10.97;7.00;;;7.20;99.90;;;;;;5096252;28;20476;-52
2021/10/11 02:07:45;;;;;;;9.50;6.50;;;7.20;99.90;;;;;;5096505;28;20430;-46
2021/10/11 02:10:12;;;;;;;15.23;7.60;;;7.20;99.90;;;;;;5097207;28;20466;-51
2021/10/11 02:12:40;;;;;;;15.60;7.23;;;7.20;99.90;;;;;;5096790;28;20447;-43
2021/10/11 02:15:08;;;;;;;12.80;6.77;;;7.10;99.90;;;;;;5096402;28;20600;-48
2021/10/11 02:17:35;;;;;;;11.57;7.30;;;7.20;99.90;;;;;;5096047;28;20461;-52
2021/10/11 02:20:02;;;;;;;15.00;8.90;;;7.30;99.90;;;;;;5096714;28;20462;-50
2021/10/11 02:22:31;;;;;;;11.33;8.17;;;7.30;99.90;;;;;;5095710;28;20442;-51
2021/10/11 02:24:57;;;;;;;12.80;8.23;;;7.30;99.90;;;;;;5095954;28;20470;-50
2021/10/11 02:27:26;;;;;;;9.53;7.60;;;7.40;99.90;;;;;;5096153;28;20431;-49
2021/10/11 02:29:54;;;;;;;12.20;7.60;;;7.30;99.90;;;;;;5095863;28;20492;-53
2021/10/11 02:32:21;;;;;;;13.13;7.40;;;7.20;99.90;;;;;;5099191;28;20456;-48
2021/10/11 02:34:47;;;;;;;27.07;7.57;;;7.20;99.90;;;;;;5100258;28;20474;-48
2021/10/11 02:37:14;;;;;;;9.57;6.20;;;7.10;99.90;;;;;;5100250;28;20768;-57
2021/10/11 02:39:40;;;;;;;13.17;7.57;;;7.10;99.90;;;;;;5100090;28;20454;-50
2021/10/11 02:42:07;;;;;;;12.30;6.80;;;7.00;99.90;;;;;;5100426;28;20441;-51
2021/10/11 02:44:34;;;;;;;10.73;6.40;;;7.00;99.90;;;;;;5099344;28;20524;-47
2021/10/11 02:47:02;;;;;;;14.00;6.87;;;7.00;99.90;;;;;;5099894;28;20427;-46
2021/10/11 02:49:29;;;;;;;11.60;6.73;;;7.00;99.90;;;;;;5099374;28;20454;-43
2021/10/11 02:51:55;;;;;;;11.50;7.57;;;7.00;99.90;;;;;;5099803;28;20419;-49
2021/10/11 02:54:22;;;;;;;11.97;7.10;;;7.00;99.90;;;;;;5100029;28;20423;-51
2021/10/11 02:56:49;;;;;;;13.83;8.40;;;7.00;99.90;;;;;;5099574;28;20466;-51
2021/10/11 02:59:15;;;;;;;11.20;7.33;;;7.00;99.90;;;;;;5099551;28;20461;-47
2021/10/11 03:01:42;;;;;;;9.03;6.50;;;7.00;99.90;;;;;;5099517;28;20461;-49
2021/10/11 03:04:12;;;;;;;15.80;7.80;;;6.90;99.90;;;;;;5098990;28;20484;-51
2021/10/11 03:06:39;;;;;;;15.70;7.97;;;7.00;99.90;;;;;;5099901;28;20446;-51
2021/10/11 03:09:05;;;;;;;20.97;9.30;;;7.00;99.90;;;;;;5099582;28;20426;-48
2021/10/11 03:11:32;;;;;;;17.27;7.73;;;7.00;99.90;;;;;;5099270;28;20438;-45
2021/10/11 03:13:59;;;;;;;11.90;8.40;;;7.00;99.90;;;;;;5099205;28;20454;-50
2021/10/11 03:16:26;;;;;;;13.20;7.97;;;7.00;99.90;;;;;;5099428;28;20460;-50
2021/10/11 03:18:53;;;;;;;11.33;7.03;;;7.00;99.90;;;;;;5099188;28;20438;-52
2021/10/11 03:21:21;;;;;;;11.93;7.10;;;7.00;99.90;;;;;;5099412;28;20488;-47
2021/10/11 03:23:49;;;;;;;20.13;8.73;;;7.10;99.90;;;;;;5099398;28;20506;-53
2021/10/11 03:26:15;;;;;;;16.43;8.23;;;7.00;99.90;;;;;;5099520;28;20458;-46
2021/10/11 03:28:42;;;;;;;13.20;7.60;;;7.10;99.90;;;;;;5099517;28;20460;-49
2021/10/11 03:31:09;;;;;;;11.30;7.27;;;7.10;99.90;;;;;;5099791;28;20453;-47
2021/10/11 03:33:38;;;;;;;11.57;7.57;;;7.10;99.90;;;;;;5099527;28;20480;-46
2021/10/11 03:36:05;;;;;;;10.93;7.50;;;7.10;99.90;;;;;;5099235;28;20489;-49
2021/10/11 03:38:33;;;;;;;12.20;6.90;;;7.00;99.90;;;;;;5098461;28;20523;-47
2021/10/11 03:41:00;;;;;;;18.50;7.40;;;7.10;99.90;;;;;;5098428;28;20484;-50
2021/10/11 03:43:26;;;;;;;12.57;7.10;;;7.10;99.90;;;;;;5097711;28;20454;-48
2021/10/11 03:45:55;;;;;;;10.50;7.00;;;7.10;99.90;;;;;;5098179;28;20560;-47
2021/10/11 03:48:21;;;;;;;18.20;7.47;;;7.10;99.90;;;;;;5098581;28;20434;-52
2021/10/11 03:50:48;;;;;;;13.83;7.20;;;7.10;99.90;;;;;;5098408;28;20447;-52
2021/10/11 03:53:16;;;;;;;16.50;9.00;;;7.10;99.90;;;;;;5098635;28;20442;-45
2021/10/11 03:55:44;;;;;;;11.60;6.80;;;7.10;99.90;;;;;;5098423;28;20462;-45
2021/10/11 03:58:11;;;;;;;10.90;7.37;;;7.10;99.90;;;;;;5098489;28;20474;-48
2021/10/11 04:00:38;;;;;;;16.13;7.13;;;7.10;99.90;;;;;;5097604;28;20485;-48
2021/10/11 04:03:07;;;;;;;11.83;7.57;;;7.00;99.90;;;;;;5098617;28;20447;-48
2021/10/11 04:05:33;;;;;;;14.53;7.93;;;7.00;99.90;;;;;;5098189;28;20454;-51
2021/10/11 04:08:04;;;;;;;16.33;8.23;;;7.00;99.90;;;;;;5097654;28;20458;-49
2021/10/11 04:10:34;;;;;;;11.30;6.77;;;7.00;99.90;;;;;;5097885;28;20474;-50
2021/10/11 04:13:04;;;;;;;19.10;8.07;;;7.00;99.90;;;;;;5097758;28;20461;-44
2021/10/11 04:15:31;;;;;;;10.67;7.40;;;7.10;99.90;;;;;;5098542;28;20942;-50
2021/10/11 04:17:58;;;;;;;10.80;7.23;;;7.10;99.90;;;;;;5098606;28;20497;-50
2021/10/11 04:20:28;;;;;;;13.03;7.70;;;7.10;99.90;;;;;;5098319;28;20527;-49
2021/10/11 04:22:55;;;;;;;13.80;6.50;;;7.10;99.90;;;;;;5097725;28;20443;-46
2021/10/11 04:25:21;;;;;;;19.07;9.03;;;7.10;99.90;;;;;;5098069;28;20462;-53
2021/10/11 04:27:52;;;;;;;12.00;7.03;;;7.10;99.90;;;;;;5097781;28;20460;-52
2021/10/11 04:30:20;;;;;;;18.23;7.67;;;7.10;99.90;;;;;;5097820;28;20446;-46
2021/10/11 04:32:47;;;;;;;14.47;7.47;;;7.10;99.90;;;;;;5098140;28;20442;-48
2021/10/11 04:35:13;;;;;;;12.80;7.03;;;7.10;99.90;;;;;;5098108;28;20447;-53
2021/10/11 04:37:40;;;;;;;12.33;8.03;;;7.10;99.90;;;;;;5098140;28;20497;-51
2021/10/11 04:40:09;;;;;;;12.43;6.63;;;7.10;99.90;;;;;;5097952;28;20450;-49
2021/10/11 04:42:36;;;;;;;11.90;7.77;;;7.10;99.90;;;;;;5098269;28;20442;-49
2021/10/11 04:45:06;;;;;;;11.23;6.90;;;7.10;99.90;;;;;;5097929;28;20442;-44
2021/10/11 04:47:34;;;;;;;11.00;6.70;;;7.00;99.90;;;;;;5098096;28;20461;-47
2021/10/11 04:50:01;;;;;;;13.73;8.07;;;7.00;99.90;;;;;;5098050;28;20439;-46
2021/10/11 04:52:27;;;;;;;21.07;7.17;;;7.00;99.90;;;;;;5098210;28;20466;-50
2021/10/11 04:54:54;;;;;;;14.27;7.07;;;7.00;99.90;;;;;;5097337;28;20448;-50
2021/10/11 04:57:23;;;;;;;15.50;8.27;;;7.00;99.90;;;;;;5097731;28;20488;-51
2021/10/11 04:59:49;;;;;;;13.27;8.00;;;7.10;99.90;;;;;;5097342;28;20434;-52
2021/10/11 05:02:18;;;;;;;12.33;7.20;;;7.10;99.90;;;;;;5096940;28;20454;-49
2021/10/11 05:04:46;;;;;;;14.40;7.37;;;7.10;99.90;;;;;;5097609;28;20461;-46
2021/10/11 05:07:13;;;;;;;15.90;8.20;;;7.10;99.90;;;;;;5097442;28;20475;-51
2021/10/11 05:09:39;;;;;;;10.97;7.10;;;7.00;99.90;;;;;;5097285;28;20442;-49
2021/10/11 05:12:06;;;;;;;11.90;6.87;;;7.00;99.90;;;;;;5096890;28;20454;-49
2021/10/11 05:14:33;;;;;;;14.97;7.10;;;7.00;99.90;;;;;;5097078;28;20439;-52
2021/10/11 05:16:59;;;;;;;15.63;7.23;;;7.00;99.90;;;;;;5096826;28;20496;-52
2021/10/11 05:19:28;;;;;;;13.83;7.60;;;7.00;99.90;;;;;;5096597;28;20426;-54
2021/10/11 05:21:57;;;;;;;14.57;8.60;;;7.10;99.90;;;;;;5097088;28;20472;-48
2021/10/11 05:24:25;;;;;;;16.87;7.90;;;7.10;99.90;;;;;;5096824;28;20503;-50
2021/10/11 05:26:53;;;;;;;11.17;8.10;;;7.10;99.90;;;;;;5096512;28;20454;-47
2021/10/11 05:29:20;;;;;;;15.20;8.50;;;7.10;99.90;;;;;;5096807;28;20446;-47
2021/10/11 05:31:47;;;;;;;14.23;6.77;;;7.10;99.90;;;;;;5096349;28;20939;-47
2021/10/11 05:34:14;;;;;;;13.37;7.43;;;7.10;99.90;;;;;;5096684;28;20445;-47
2021/10/11 05:36:42;;;;;;;11.83;8.30;;;7.10;99.90;;;;;;5096576;28;20493;-57
2021/10/11 05:39:10;;;;;;;15.30;8.20;;;7.10;99.90;;;;;;5096876;28;20482;-46
2021/10/11 05:41:37;;;;;;;14.30;8.03;;;7.20;99.90;;;;;;5096824;28;20462;-50
2021/10/11 05:44:04;;;;;;;16.67;8.07;;;7.10;99.90;;;;;;5096961;28;20472;-51
2021/10/11 05:46:31;;;;;;;21.03;7.23;;;7.10;99.90;;;;;;5096144;28;20974;-50
2021/10/11 05:48:57;;;;;;;12.57;6.80;;;7.20;99.90;;;;;;5096751;28;20460;-52
2021/10/11 05:51:24;;;;;;;13.10;8.80;;;7.20;99.90;;;;;;5096532;28;20450;-49
2021/10/11 05:53:52;;;;;;;16.30;7.63;;;7.20;99.90;;;;;;5096757;28;20454;-48
2021/10/11 05:56:20;;;;;;;10.93;6.43;;;7.20;99.90;;;;;;5096483;28;20466;-49
2021/10/11 05:58:47;;;;;;;17.77;8.20;;;7.20;99.90;;;;;;5096587;28;20462;-45
2021/10/11 06:01:14;;;;;;;14.47;6.87;;;7.20;99.90;;;;;;5096624;28;20472;-47
2021/10/11 06:03:40;;;;;;;13.63;7.40;;;7.20;99.90;;;;;;5096324;28;20446;-48
2021/10/11 06:06:07;;;;;;;14.10;8.43;;;7.30;99.90;;;;;;5095749;28;20452;-50
2021/10/11 06:08:34;;;;;;;19.13;8.20;;;7.30;99.90;;;;;;5096808;28;20418;-43
2021/10/11 06:11:00;;;;;;;16.13;9.00;;;7.30;99.90;;;;;;5096317;28;20961;-46
2021/10/11 06:13:31;;;;;;;16.07;7.83;;;7.30;99.90;;;;;;5096057;28;20447;-44
2021/10/11 06:15:57;;;;;;;20.57;7.97;;;7.30;99.90;;;;;;5096277;28;20456;-51
2021/10/11 06:18:25;;;;;;;9.67;6.87;;;7.30;99.90;;;;;;5095640;28;20477;-48
2021/10/11 06:20:53;;;;;;;16.67;6.77;;;7.40;99.90;;;;;;5095671;28;20478;-52
2021/10/11 06:23:20;;;;;;;10.93;7.10;;;7.50;99.90;;;;;;5095760;28;20423;-46
2021/10/11 06:25:46;;;;;;;13.50;8.37;;;7.50;99.90;;;;;;5095893;28;20450;-48
2021/10/11 06:28:15;;;;;;;25.80;8.07;;;7.50;99.90;;;;;;5095709;28;20418;-46
2021/10/11 06:30:45;;;;;;;18.00;8.33;;;7.60;99.90;;;;;;5095801;28;20441;-52
2021/10/11 06:33:12;;;;;;;12.00;8.47;;;7.60;99.90;;;;;;5095585;28;20436;-47
2021/10/11 06:35:38;;;;;;;19.57;8.43;;;7.60;99.90;;;;;;5095573;28;20442;-51
2021/10/11 06:38:05;;;;;;;14.07;7.70;;;7.60;99.90;;;;;;5095792;28;20789;-55
2021/10/11 06:40:32;;;;;;;16.93;8.23;;;7.70;99.90;;;;;;5096298;28;20438;-51
2021/10/11 06:42:59;;;;;;;19.23;7.40;;;7.70;99.90;;;;;;5095843;28;20446;-51
2021/10/11 06:45:25;;;;;;;13.67;8.50;;;7.80;99.90;;;;;;5095647;28;20503;-53
2021/10/11 06:47:53;;;;;;;15.67;7.73;;;7.80;99.90;;;;;;5095914;28;20454;-49
2021/10/11 06:50:20;;;;;;;12.53;6.50;;;7.80;99.90;;;;;;5095610;28;20426;-50
2021/10/11 06:52:49;;;;;;;14.67;8.40;;;8.00;99.90;;;;;;5095797;28;20490;-46
2021/10/11 06:55:15;;;;;;;38.20;9.80;;;8.00;99.90;;;;;;5095402;28;20431;-43
2021/10/11 06:57:42;;;;;;;18.27;9.97;;;8.00;99.90;;;;;;5095263;28;20476;-51
2021/10/11 07:00:10;;;;;;;14.13;9.37;;;8.10;99.90;;;;;;5095295;28;20457;-47
2021/10/11 07:02:38;;;;;;;15.63;8.30;;;8.30;99.90;;;;;;5095345;28;20553;-48
2021/10/11 07:05:10;;;;;;;12.83;7.60;;;8.30;99.90;;;;;;5095446;28;20438;-48
2021/10/11 07:07:41;;;;;;;14.63;8.10;;;8.30;99.90;;;;;;5095496;28;20458;-48
2021/10/11 07:10:08;;;;;;;18.23;8.37;;;8.40;99.90;;;;;;5095823;28;20429;-55
2021/10/11 07:12:37;;;;;;;12.10;7.17;;;8.50;99.90;;;;;;5095542;28;20466;-51
2021/10/11 07:15:05;;;;;;;14.00;8.97;;;8.50;99.90;;;;;;5095281;28;20443;-50
2021/10/11 07:17:32;;;;;;;14.50;8.90;;;8.50;99.90;;;;;;5097165;28;20492;-48
2021/10/11 07:19:59;;;;;;;16.90;8.17;;;8.60;99.90;;;;;;5098706;28;20488;-51
2021/10/11 07:22:27;;;;;;;13.57;7.43;;;8.60;99.90;;;;;;5099430;28;20466;-51
2021/10/11 07:24:53;;;;;;;18.20;8.53;;;8.70;99.90;;;;;;5099310;28;20472;-49
2021/10/11 07:27:20;;;;;;;15.30;8.60;;;8.70;99.90;;;;;;5099303;28;20454;-53
2021/10/11 07:29:48;;;;;;;18.87;11.10;;;8.70;99.90;;;;;;5243645;22;20977;-40
2021/10/11 07:32:15;;;;;;;21.80;9.17;;;8.80;99.90;;;;;;5098370;28;20500;-48
2021/10/11 07:37:12;;;;;;;24.50;9.70;;;9.00;99.90;;;;;;5150847;22;20503;-45
2021/10/11 07:39:40;;;;;;;19.40;8.90;;;9.10;99.90;;;;;;5098627;28;20224;-45
2021/10/11 07:42:06;;;;;;;21.30;9.23;;;9.20;99.90;;;;;;5106577;22;20474;-50
2021/10/11 07:44:33;;;;;;;17.67;9.50;;;9.20;99.90;;;;;;5098893;28;20434;-49
2021/10/11 07:47:00;;;;;;;18.57;9.20;;;9.20;99.90;;;;;;5150351;22;20557;-48
2021/10/11 07:49:27;;;;;;;13.57;8.80;;;9.30;99.90;;;;;;5119131;28;20433;-52
2021/10/11 07:51:53;;;;;;;18.43;10.13;;;9.40;99.90;;;;;;5210867;22;20474;-51
2021/10/11 07:54:20;;;;;;;18.03;9.67;;;9.40;99.90;;;;;;5099279;28;20460;-41
2021/10/11 07:56:53;;;;;;;22.13;9.90;;;9.40;99.90;;;;;;5116953;22;20481;-46
2021/10/11 07:59:20;;;;;;;12.30;9.70;;;9.40;99.90;;;;;;5118820;28;20445;-51
2021/10/11 08:01:47;;;;;;;23.83;10.43;;;9.50;99.90;;;;;;5118042;22;20466;-46
2021/10/11 08:04:13;;;;;;;24.73;9.83;;;9.50;99.90;;;;;;5098479;28;20456;-46
2021/10/11 08:06:40;;;;;;;16.43;8.50;;;9.60;99.90;;;;;;5127691;22;20485;-43
2021/10/11 08:09:09;;;;;;;18.07;8.80;;;9.60;99.90;;;;;;5118647;28;20471;-52
2021/10/11 08:11:36;;;;;;;19.73;10.00;;;9.60;99.90;;;;;;5138401;22;20501;-48
2021/10/11 08:14:04;;;;;;;24.10;12.87;;;9.60;99.90;;;;;;5098661;28;20455;-45
2021/10/11 08:16:31;;;;;;;20.00;9.60;;;9.70;99.90;;;;;;5107022;22;20446;-46
2021/10/11 08:18:58;;;;;;;17.37;10.30;;;9.80;99.90;;;;;;5118434;28;20477;-45
2021/10/11 08:21:25;;;;;;;29.17;13.07;;;9.90;99.90;;;;;;5118941;28;20535;-51
2021/10/11 08:23:54;;;;;;;20.83;10.60;;;9.90;99.90;;;;;;5108679;22;20525;-45
2021/10/11 08:26:21;;;;;;;22.60;9.47;;;10.00;99.90;;;;;;5098387;28;20469;-46
2021/10/11 08:28:50;;;;;;;19.73;11.30;;;10.00;99.90;;;;;;5135891;22;20482;-43
2021/10/11 08:31:19;;;;;;;23.70;10.90;;;10.00;99.90;;;;;;5098035;28;20450;-48
2021/10/11 08:33:47;;;;;;;20.10;10.63;;;10.00;99.90;;;;;;5105235;22;20482;-46
2021/10/11 08:36:15;;;;;;;28.53;12.87;;;10.00;99.90;;;;;;5097943;28;20439;-46
2021/10/11 08:38:42;;;;;;;26.50;12.63;;;10.00;99.90;;;;;;5120588;22;20474;-50
2021/10/11 08:41:11;;;;;;;19.20;10.33;;;10.00;99.90;;;;;;5097796;28;20481;-44
2021/10/11 08:43:41;;;;;;;19.87;10.00;;;10.00;99.90;;;;;;5128578;22;20498;-47
2021/10/11 08:46:08;;;;;;;16.10;10.30;;;10.00;99.90;;;;;;5096901;28;20457;-45
2021/10/11 08:48:36;;;;;;;23.10;11.03;;;10.10;99.90;;;;;;5112746;22;20476;-44
2021/10/11 08:51:05;;;;;;;27.20;12.60;;;10.20;99.90;;;;;;5117793;28;20468;-51
2021/10/11 08:53:32;;;;;;;25.83;10.83;;;10.30;99.90;;;;;;5135226;22;20559;-49
2021/10/11 08:55:59;;;;;;;22.80;12.33;;;10.40;99.90;;;;;;5096773;28;20434;-46
2021/10/11 08:58:26;;;;;;;18.57;10.90;;;10.50;99.90;;;;;;5138903;22;20474;-48
2021/10/11 09:00:53;;;;;;;20.97;12.10;;;10.50;99.90;;;;;;5117609;28;20462;-51
2021/10/11 09:03:26;;;;;;;18.97;11.50;;;10.60;99.90;;;;;;5125603;22;20462;-44
2021/10/11 09:06:04;;;;;;;27.07;14.30;;;10.80;99.90;;;;;;5076019;28;20423;-46
2021/10/11 09:11:01;;;;;;;21.43;11.97;;;10.90;99.90;;;;;;5055196;28;20487;-49
2021/10/11 09:16:12;;;;;;;20.00;10.80;;;11.30;99.90;;;;;;5101514;22;20486;-46
2021/10/11 09:21:31;;;;;;;22.63;12.00;;;11.60;99.90;;;;;;5138878;22;20481;-50
2021/10/11 09:26:25;;;;;;;18.67;12.20;;;12.00;99.90;;;;;;5118213;22;20474;-46
2021/10/11 09:28:55;;;;;;;25.30;13.30;;;12.10;99.90;;;;;;5096634;28;20279;-52
2021/10/11 09:31:36;;;;;;;33.93;12.60;;;12.20;99.90;;;;;;5121502;22;20540;-46
2021/10/11 09:34:03;;;;;;;32.47;13.23;;;12.70;99.90;;;;;;5116083;28;20495;-47
2021/10/11 09:36:32;;;;;;;24.33;11.47;;;13.60;99.90;;;;;;5106641;22;20591;-52
2021/10/11 09:39:01;;;;;;;21.87;12.50;;;13.90;99.90;;;;;;5094942;28;20551;-49
2021/10/11 09:41:28;;;;;;;20.03;11.80;;;14.40;99.90;;;;;;5102329;22;20521;-49
2021/10/11 09:43:55;;;;;;;22.37;11.53;;;15.00;99.90;;;;;;5095027;28;20480;-48
2021/10/11 09:46:24;;;;;;;21.90;11.60;;;15.60;99.90;;;;;;5118149;22;20504;-47
2021/10/11 09:48:56;;;;;;;18.73;11.67;;;15.60;99.90;;;;;;5095836;28;20481;-46
2021/10/11 09:51:30;;;;;;;18.00;11.70;;;15.60;99.90;;;;;;5114147;22;20479;-43
2021/10/11 09:54:10;;;;;;;20.20;11.70;;;15.60;99.90;;;;;;5115598;28;20461;-47
2021/10/11 09:56:39;;;;;;;20.03;11.23;;;15.40;99.90;;;;;;5176422;22;20490;-50
2021/10/11 09:59:09;;;;;;;23.83;12.57;;;15.60;99.90;;;;;;5094933;28;20490;-48
2021/10/11 10:01:36;;;;;;;18.00;9.80;;;15.60;99.90;;;;;;5094196;22;20467;-47
2021/10/11 10:04:04;;;;;;;19.00;10.03;;;15.70;99.90;;;;;;5075500;28;20451;-43
2021/10/11 10:06:33;;;;;;;21.13;10.57;;;16.50;99.90;;;;;;5105139;22;20500;-49
2021/10/11 10:09:05;;;;;;;15.30;9.43;;;17.60;99.90;;;;;;5094777;28;20462;-43
2021/10/11 10:11:34;;;;;;;12.43;9.70;;;18.20;99.90;;;;;;5168544;22;20515;-48
2021/10/11 10:14:03;;;;;;;19.47;10.07;;;18.60;99.90;;;;;;5115610;28;20469;-47
2021/10/11 10:16:36;;;;;;;12.77;9.87;;;18.70;99.90;;;;;;5134904;22;20478;-49
2021/10/11 10:19:10;;;;;;;12.60;9.17;;;18.90;99.90;;;;;;5095408;28;20500;-43
2021/10/11 10:21:40;;;;;;;14.03;9.47;;;19.30;99.90;;;;;;5119884;22;20442;-49
2021/10/11 10:24:09;;;;;;;32.70;18.50;;;19.60;99.90;;;;;;5115352;28;20465;-47
2021/10/11 10:26:41;;;;;;;24.53;13.23;;;20.00;99.90;;;;;;5123797;22;20445;-46
2021/10/11 10:29:15;;;;;;;15.50;8.73;;;20.20;99.90;;;;;;5074628;28;20463;-47
2021/10/11 10:31:44;;;;;;;15.40;9.80;;;20.50;99.90;;;;;;5084674;22;20470;-39
2021/10/11 10:34:15;;;;;;;15.20;8.70;;;20.40;99.90;;;;;;5114485;28;20533;-48
2021/10/11 10:36:43;;;;;;;15.10;8.40;;;20.70;99.90;;;;;;5116093;28;20442;-43
2021/10/11 10:39:37;;;;;;;15.23;7.93;;;20.60;99.90;;;;;;5134834;22;20473;-41
2021/10/11 10:42:04;;;;;;;12.10;7.80;;;20.40;99.90;;;;;;5119436;22;20422;-41
2021/10/11 10:44:30;;;;;;;12.00;8.27;;;20.30;99.90;;;;;;5094269;28;20466;-46
2021/10/11 10:46:59;;;;;;;16.73;8.70;;;20.10;99.90;;;;;;5095686;28;20438;-43
2021/10/11 10:49:31;;;;;;;14.70;8.73;;;20.10;99.90;;;;;;5118865;22;20489;-44
2021/10/11 10:51:58;;;;;;;20.47;9.00;;;19.90;99.90;;;;;;5117114;28;20441;-49
2021/10/11 10:54:37;;;;;;;12.80;8.00;;;19.70;99.90;;;;;;5109885;22;20466;-46
2021/10/11 10:57:05;;;;;;;13.83;6.90;;;19.30;99.90;;;;;;5100063;28;20446;-55
2021/10/11 10:59:34;;;;;;;12.77;7.33;;;18.60;99.90;;;;;;5197923;22;20472;-49
2021/10/11 11:02:12;;;;;;;11.33;6.80;;;18.20;99.90;;;;;;5140996;28;20440;-52
2021/10/11 11:04:53;;;;;;;13.17;7.43;;;18.10;99.90;;;;;;5117543;22;20490;-49
2021/10/11 11:07:26;;;;;;;13.23;6.97;;;18.00;99.90;;;;;;5099279;28;20444;-46
2021/10/11 11:09:55;;;;;;;19.13;10.13;;;18.00;99.90;;;;;;5105985;22;20482;-44
2021/10/11 11:12:29;;;;;;;14.30;6.70;;;17.60;99.90;;;;;;5098890;28;20472;-48
2021/10/11 11:14:59;;;;;;;14.77;7.57;;;17.40;99.90;;;;;;5152295;22;20489;-46
2021/10/11 11:17:37;;;;;;;12.53;7.27;;;17.20;99.90;;;;;;5098882;28;20439;-54
2021/10/11 11:20:15;;;;;;;13.60;7.20;;;16.90;99.90;;;;;;5106065;22;20573;-45
2021/10/11 11:22:42;;;;;;;17.83;8.37;;;16.90;99.90;;;;;;5098515;28;20418;-46
2021/10/11 11:25:10;;;;;;;11.50;5.63;;;16.90;99.90;;;;;;5122683;22;20513;-48
2021/10/11 11:27:42;;;;;;;12.23;5.90;;;16.80;99.90;;;;;;5098595;28;20468;-44
2021/10/11 11:30:12;;;;;;;10.20;6.87;;;16.70;99.90;;;;;;5118039;22;20511;-53
2021/10/11 11:32:45;;;;;;;13.47;7.73;;;16.50;99.90;;;;;;5118874;28;20459;-50
2021/10/11 11:35:17;;;;;;;14.00;6.13;;;16.20;99.90;;;;;;5122890;22;20506;-49
2021/10/11 11:37:46;;;;;;;13.83;6.27;;;16.00;99.90;;;;;;5097831;28;20419;-50
2021/10/11 11:42:42;;;;;;;12.30;7.30;;;15.50;99.90;;;;;;5075878;28;20946;-44
2021/10/11 11:45:09;;;;;;;9.97;5.77;;;15.40;99.90;;;;;;5077603;28;20469;-46
2021/10/11 11:47:37;;;;;;;8.57;5.93;;;15.30;99.90;;;;;;5165730;22;20523;-45
2021/10/11 11:50:16;;;;;;;11.43;5.77;;;15.30;99.90;;;;;;5126983;22;20490;-46
2021/10/11 11:52:42;;;;;;;8.30;4.90;;;15.40;99.90;;;;;;5119999;22;20528;-48
2021/10/11 11:55:09;;;;;;;11.97;5.97;;;15.50;99.90;;;;;;5096997;28;20454;-42
2021/10/11 11:57:45;;;;;;;13.73;6.27;;;15.50;99.90;;;;;;5116351;22;20466;-44
2021/10/11 12:00:13;;;;;;;10.00;5.53;;;15.60;99.90;;;;;;5093552;28;20474;-46
2021/10/11 12:02:45;;;;;;;14.53;4.90;;;15.70;99.90;;;;;;5102423;22;20484;-46
2021/10/11 12:05:12;;;;;;;6.40;4.53;;;15.80;99.90;;;;;;5098333;28;20461;-47
2021/10/11 12:07:43;;;;;;;9.03;4.40;;;15.70;99.90;;;;;;5108095;22;20470;-47
2021/10/11 12:10:13;;;;;;;13.07;4.40;;;15.70;99.90;;;;;;5099077;28;20431;-50
2021/10/11 12:12:40;;;;;;;9.70;3.53;;;15.80;99.90;;;;;;5114615;22;20475;-46
2021/10/11 12:15:18;;;;;;;6.53;4.00;;;15.90;99.90;;;;;;5119108;28;20437;-47
2021/10/11 12:17:48;;;;;;;6.37;3.03;;;16.00;99.90;;;;;;5125601;22;20474;-45
2021/10/11 12:20:16;;;;;;;6.73;3.60;;;16.10;99.90;;;;;;5098496;28;20492;-43
2021/10/11 12:22:43;;;;;;;8.87;3.97;;;16.10;99.90;;;;;;5109496;22;20491;-43
2021/10/11 12:25:11;;;;;;;10.00;3.80;;;16.30;99.90;;;;;;5117843;28;20448;-49
2021/10/11 12:27:38;;;;;;;7.17;3.73;;;16.50;99.90;;;;;;5122650;22;20636;-47
2021/10/11 12:30:09;;;;;;;10.00;3.70;;;16.70;99.90;;;;;;5098082;28;20427;-45
2021/10/11 12:33:01;;;;;;;6.80;3.00;;;16.70;99.90;;;;;;5105529;22;20513;-46
2021/10/11 12:35:29;;;;;;;4.90;2.70;;;16.70;99.90;;;;;;5095644;28;20447;-48
2021/10/11 12:38:08;;;;;;;8.73;2.97;;;16.70;99.90;;;;;;5108502;22;20464;-47
2021/10/11 12:40:35;;;;;;;7.17;3.50;;;16.70;99.90;;;;;;5117971;28;20477;-45
2021/10/11 12:43:12;;;;;;;4.90;3.00;;;16.60;99.90;;;;;;5120729;22;20506;-46
2021/10/11 12:45:39;;;;;;;8.03;3.33;;;16.50;99.90;;;;;;5077985;28;20423;-42
2021/10/11 12:48:07;;;;;;;6.37;3.90;;;16.50;99.90;;;;;;5082716;22;20522;-45
2021/10/11 12:50:34;;;;;;;10.93;3.40;;;16.70;99.90;;;;;;5098140;22;20486;-48
2021/10/11 12:53:01;;;;;;;3.10;2.47;;;16.80;99.90;;;;;;5077483;28;20506;-47
2021/10/11 12:55:31;;;;;;;6.40;2.13;;;16.60;99.90;;;;;;5084800;22;20475;-46
2021/10/11 12:58:05;;;;;;;6.10;2.70;;;16.40;99.90;;;;;;5068500;28;20466;-45
2021/10/11 13:00:32;;;;;;;9.20;2.43;;;16.10;99.90;;;;;;5100283;22;20489;-49
2021/10/11 13:02:59;;;;;;;4.03;2.27;;;16.00;99.90;;;;;;5079963;28;20438;-47
2021/10/11 13:05:28;;;;;;;5.03;2.57;;;15.80;99.90;;;;;;5112083;22;20486;-47